sensor_id;sensor_type;location;lat;lon;timestamp;temperature;humidity
22192;DHT22;11261;52.456;10.850;2022-08-14T00:02:14;21.90;99.90
22192;DHT22;11261;52.456;10.850;2022-08-14T00:04:42;21.80;99.90
22192;DHT22;11261;52.456;10.850;2022-08-14T00:07:11;21.80;99.90
22192;DHT22;11261;52.456;10.850;2022-08-14T00:09:42;21.90;99.90
22192;DHT22;11261;52.456;10.850;2022-08-14T00:12:31;22.10;99.90
22192;DHT22;11261;52.456;10.850;2022-08-14T00:15:08;22.20;99.90
22192;DHT22;11261;52.456;10.850;2022-08-14T00:17:39;22.20;99.90
22192;DHT22;11261;52.456;10.850;2022-08-14T00:20:15;22.20;99.90
22192;DHT22;11261;52.456;10.850;2022-08-14T00:22:54;22.20;99.90
22192;DHT22;11261;52.456;10.850;2022-08-14T00:25:26;22.20;99.90
22192;DHT22;11261;52.456;10.850;2022-08-14T00:28:10;22.20;99.90
22192;DHT22;11261;52.456;10.850;2022-08-14T00:30:41;22.10;99.90
22192;DHT22;11261;52.456;10.850;2022-08-14T00:33:09;21.90;99.90
22192;DHT22;11261;52.456;10.850;2022-08-14T00:35:42;21.80;99.90
22192;DHT22;11261;52.456;10.850;2022-08-14T00:38:31;21.90;99.90
22192;DHT22;11261;52.456;10.850;2022-08-14T00:41:03;22.00;99.90
22192;DHT22;11261;52.456;10.850;2022-08-14T00:43:36;22.00;99.90
22192;DHT22;11261;52.456;10.850;2022-08-14T00:46:11;22.10;99.90
22192;DHT22;11261;52.456;10.850;2022-08-14T00:48:58;22.10;99.90
22192;DHT22;11261;52.456;10.850;2022-08-14T00:51:28;22.00;99.90
22192;DHT22;11261;52.456;10.850;2022-08-14T00:54:04;21.90;99.90
22192;DHT22;11261;52.456;10.850;2022-08-14T00:56:49;21.80;99.90
22192;DHT22;11261;52.456;10.850;2022-08-14T00:59:22;21.90;99.90
22192;DHT22;11261;52.456;10.850;2022-08-14T01:01:53;21.80;99.90
22192;DHT22;11261;52.456;10.850;2022-08-14T01:04:25;21.10;99.90
22192;DHT22;11261;52.456;10.850;2022-08-14T01:07:14;21.20;99.90
22192;DHT22;11261;52.456;10.850;2022-08-14T01:09:47;21.40;99.90
22192;DHT22;11261;52.456;10.850;2022-08-14T01:12:19;21.60;99.90
22192;DHT22;11261;52.456;10.850;2022-08-14T01:14:55;21.80;99.90
22192;DHT22;11261;52.456;10.850;2022-08-14T01:17:25;21.30;99.90
22192;DHT22;11261;52.456;10.850;2022-08-14T01:20:16;21.50;99.90
22192;DHT22;11261;52.456;10.850;2022-08-14T01:23:08;21.60;99.90
22192;DHT22;11261;52.456;10.850;2022-08-14T01:25:44;21.80;99.90
22192;DHT22;11261;52.456;10.850;2022-08-14T01:28:12;21.90;99.90
22192;DHT22;11261;52.456;10.850;2022-08-14T01:31:00;21.60;99.90
22192;DHT22;11261;52.456;10.850;2022-08-14T01:33:32;20.90;99.90
22192;DHT22;11261;52.456;10.850;2022-08-14T01:36:20;21.00;99.90
22192;DHT22;11261;52.456;10.850;2022-08-14T01:38:52;21.00;99.90
22192;DHT22;11261;52.456;10.850;2022-08-14T01:41:26;21.40;99.90
22192;DHT22;11261;52.456;10.850;2022-08-14T01:43:58;21.40;99.90
22192;DHT22;11261;52.456;10.850;2022-08-14T01:46:30;21.40;99.90
22192;DHT22;11261;52.456;10.850;2022-08-14T01:49:06;21.40;99.90
22192;DHT22;11261;52.456;10.850;2022-08-14T01:51:35;21.40;99.90
22192;DHT22;11261;52.456;10.850;2022-08-14T01:54:10;21.50;99.90
22192;DHT22;11261;52.456;10.850;2022-08-14T01:56:40;21.60;99.90
22192;DHT22;11261;52.456;10.850;2022-08-14T01:59:19;21.60;99.90
22192;DHT22;11261;52.456;10.850;2022-08-14T02:01:48;21.50;99.90
22192;DHT22;11261;52.456;10.850;2022-08-14T02:04:27;21.30;99.90
22192;DHT22;11261;52.456;10.850;2022-08-14T02:07:16;20.60;99.90
22192;DHT22;11261;52.456;10.850;2022-08-14T02:10:09;20.90;99.90
22192;DHT22;11261;52.456;10.850;2022-08-14T02:12:41;21.20;99.90
22192;DHT22;11261;52.456;10.850;2022-08-14T02:15:14;21.00;99.90
22192;DHT22;11261;52.456;10.850;2022-08-14T02:17:47;21.10;99.90
22192;DHT22;11261;52.456;10.850;2022-08-14T02:20:16;20.50;99.90
22192;DHT22;11261;52.456;10.850;2022-08-14T02:22:50;20.80;99.90
22192;DHT22;11261;52.456;10.850;2022-08-14T02:25:22;21.00;99.90
22192;DHT22;11261;52.456;10.850;2022-08-14T02:27:55;21.30;99.90
22192;DHT22;11261;52.456;10.850;2022-08-14T02:30:45;21.10;99.90
22192;DHT22;11261;52.456;10.850;2022-08-14T02:33:18;21.40;99.90
22192;DHT22;11261;52.456;10.850;2022-08-14T02:35:46;21.40;99.90
22192;DHT22;11261;52.456;10.850;2022-08-14T02:38:23;21.00;99.90
22192;DHT22;11261;52.456;10.850;2022-08-14T02:41:01;20.90;99.90
22192;DHT22;11261;52.456;10.850;2022-08-14T02:43:36;20.90;99.90
22192;DHT22;11261;52.456;10.850;2022-08-14T02:46:14;21.00;99.90
22192;DHT22;11261;52.456;10.850;2022-08-14T02:48:52;21.10;99.90
22192;DHT22;11261;52.456;10.850;2022-08-14T02:51:32;21.10;99.90
22192;DHT22;11261;52.456;10.850;2022-08-14T02:54:02;21.30;99.90
22192;DHT22;11261;52.456;10.850;2022-08-14T02:56:32;21.50;99.90
22192;DHT22;11261;52.456;10.850;2022-08-14T02:59:24;21.50;99.90
22192;DHT22;11261;52.456;10.850;2022-08-14T03:02:00;21.60;99.90
22192;DHT22;11261;52.456;10.850;2022-08-14T03:04:28;21.60;99.90
22192;DHT22;11261;52.456;10.850;2022-08-14T03:06:58;21.50;99.90
22192;DHT22;11261;52.456;10.850;2022-08-14T03:09:34;21.50;99.90
22192;DHT22;11261;52.456;10.850;2022-08-14T03:12:23;21.50;99.90
22192;DHT22;11261;52.456;10.850;2022-08-14T03:14:59;21.60;99.90
22192;DHT22;11261;52.456;10.850;2022-08-14T03:17:31;21.60;99.90
22192;DHT22;11261;52.456;10.850;2022-08-14T03:20:19;21.60;99.90
22192;DHT22;11261;52.456;10.850;2022-08-14T03:22:48;21.60;99.90
22192;DHT22;11261;52.456;10.850;2022-08-14T03:25:17;21.60;99.90
22192;DHT22;11261;52.456;10.850;2022-08-14T03:27:48;21.60;99.90
22192;DHT22;11261;52.456;10.850;2022-08-14T03:30:25;21.50;99.90
22192;DHT22;11261;52.456;10.850;2022-08-14T03:33:08;21.60;99.90
22192;DHT22;11261;52.456;10.850;2022-08-14T03:35:38;21.60;99.90
22192;DHT22;11261;52.456;10.850;2022-08-14T03:38:27;21.70;99.90
22192;DHT22;11261;52.456;10.850;2022-08-14T03:41:19;21.60;99.90
22192;DHT22;11261;52.456;10.850;2022-08-14T03:43:53;21.50;99.90
22192;DHT22;11261;52.456;10.850;2022-08-14T03:46:42;21.50;99.90
22192;DHT22;11261;52.456;10.850;2022-08-14T03:49:21;21.50;99.90
22192;DHT22;11261;52.456;10.850;2022-08-14T03:51:54;21.50;99.90
22192;DHT22;11261;52.456;10.850;2022-08-14T03:54:27;21.50;99.90
22192;DHT22;11261;52.456;10.850;2022-08-14T03:56:55;21.50;99.90
22192;DHT22;11261;52.456;10.850;2022-08-14T03:59:30;21.40;99.90
22192;DHT22;11261;52.456;10.850;2022-08-14T04:02:00;21.50;99.90
22192;DHT22;11261;52.456;10.850;2022-08-14T04:04:49;21.40;99.90
22192;DHT22;11261;52.456;10.850;2022-08-14T04:07:19;21.40;99.90
22192;DHT22;11261;52.456;10.850;2022-08-14T04:09:48;21.40;99.90
22192;DHT22;11261;52.456;10.850;2022-08-14T04:12:18;21.40;99.90
22192;DHT22;11261;52.456;10.850;2022-08-14T04:14:53;21.40;99.90
22192;DHT22;11261;52.456;10.850;2022-08-14T04:17:22;21.40;99.90
22192;DHT22;11261;52.456;10.850;2022-08-14T04:19:52;21.40;99.90
22192;DHT22;11261;52.456;10.850;2022-08-14T04:22:22;21.40;99.90
22192;DHT22;11261;52.456;10.850;2022-08-14T04:24:50;21.40;99.90
22192;DHT22;11261;52.456;10.850;2022-08-14T04:27:19;21.30;99.90
22192;DHT22;11261;52.456;10.850;2022-08-14T04:29:49;21.40;99.90
22192;DHT22;11261;52.456;10.850;2022-08-14T04:32:19;21.50;99.90
22192;DHT22;11261;52.456;10.850;2022-08-14T04:35:08;21.50;99.90
22192;DHT22;11261;52.456;10.850;2022-08-14T04:37:37;21.50;99.90
22192;DHT22;11261;52.456;10.850;2022-08-14T04:40:23;21.50;99.90
22192;DHT22;11261;52.456;10.850;2022-08-14T04:45:43;21.40;99.90
22192;DHT22;11261;52.456;10.850;2022-08-14T04:48:18;21.00;99.90
22192;DHT22;11261;52.456;10.850;2022-08-14T04:51:08;20.90;99.90
22192;DHT22;11261;52.456;10.850;2022-08-14T04:53:38;21.00;99.90
22192;DHT22;11261;52.456;10.850;2022-08-14T04:56:11;21.10;99.90
22192;DHT22;11261;52.456;10.850;2022-08-14T04:59:02;21.20;99.90
22192;DHT22;11261;52.456;10.850;2022-08-14T05:01:38;20.50;99.90
22192;DHT22;11261;52.456;10.850;2022-08-14T05:04:15;21.10;99.90
22192;DHT22;11261;52.456;10.850;2022-08-14T05:06:48;21.60;99.90
22192;DHT22;11261;52.456;10.850;2022-08-14T05:09:20;22.10;99.90
22192;DHT22;11261;52.456;10.850;2022-08-14T05:11:48;22.50;99.90
22192;DHT22;11261;52.456;10.850;2022-08-14T05:14:18;22.70;99.90
22192;DHT22;11261;52.456;10.850;2022-08-14T05:17:08;22.80;99.90
22192;DHT22;11261;52.456;10.850;2022-08-14T05:19:38;22.50;99.90
22192;DHT22;11261;52.456;10.850;2022-08-14T05:22:27;22.70;99.90
22192;DHT22;11261;52.456;10.850;2022-08-14T05:24:56;23.30;99.90
22192;DHT22;11261;52.456;10.850;2022-08-14T05:27:24;23.50;99.90
22192;DHT22;11261;52.456;10.850;2022-08-14T05:29:57;23.00;99.90
22192;DHT22;11261;52.456;10.850;2022-08-14T05:32:25;22.80;99.90
22192;DHT22;11261;52.456;10.850;2022-08-14T05:34:57;23.50;99.90
22192;DHT22;11261;52.456;10.850;2022-08-14T05:37:26;23.70;99.90
22192;DHT22;11261;52.456;10.850;2022-08-14T05:39:57;23.10;99.90
22192;DHT22;11261;52.456;10.850;2022-08-14T05:42:26;23.30;99.90
22192;DHT22;11261;52.456;10.850;2022-08-14T05:45:01;23.70;99.90
22192;DHT22;11261;52.456;10.850;2022-08-14T05:47:30;23.40;99.90
22192;DHT22;11261;52.456;10.850;2022-08-14T05:50:09;23.20;99.90
22192;DHT22;11261;52.456;10.850;2022-08-14T05:52:46;22.20;99.90
22192;DHT22;11261;52.456;10.850;2022-08-14T05:55:14;22.30;99.90
22192;DHT22;11261;52.456;10.850;2022-08-14T05:57:51;22.70;99.90
22192;DHT22;11261;52.456;10.850;2022-08-14T06:00:22;21.90;99.90
22192;DHT22;11261;52.456;10.850;2022-08-14T06:02:56;21.30;99.90
22192;DHT22;11261;52.456;10.850;2022-08-14T06:05:27;22.20;99.90
22192;DHT22;11261;52.456;10.850;2022-08-14T06:07:56;22.50;99.90
22192;DHT22;11261;52.456;10.850;2022-08-14T06:10:25;22.50;99.90
22192;DHT22;11261;52.456;10.850;2022-08-14T06:12:55;22.10;99.90
22192;DHT22;11261;52.456;10.850;2022-08-14T06:15:24;22.50;99.90
22192;DHT22;11261;52.456;10.850;2022-08-14T06:17:56;22.70;99.90
22192;DHT22;11261;52.456;10.850;2022-08-14T06:20:28;21.60;99.90
22192;DHT22;11261;52.456;10.850;2022-08-14T06:22:57;21.50;99.90
22192;DHT22;11261;52.456;10.850;2022-08-14T06:25:25;21.10;99.90
22192;DHT22;11261;52.456;10.850;2022-08-14T06:27:55;21.50;99.90
22192;DHT22;11261;52.456;10.850;2022-08-14T06:30:28;21.60;99.90
22192;DHT22;11261;52.456;10.850;2022-08-14T06:33:13;21.70;99.90
22192;DHT22;11261;52.456;10.850;2022-08-14T06:35:43;21.20;99.90
22192;DHT22;11261;52.456;10.850;2022-08-14T06:38:14;20.90;99.90
22192;DHT22;11261;52.456;10.850;2022-08-14T06:40:44;21.60;99.90
22192;DHT22;11261;52.456;10.850;2022-08-14T06:43:17;21.80;99.90
22192;DHT22;11261;52.456;10.850;2022-08-14T06:45:46;22.40;99.90
22192;DHT22;11261;52.456;10.850;2022-08-14T06:48:21;22.20;99.90
22192;DHT22;11261;52.456;10.850;2022-08-14T06:50:52;22.00;99.90
22192;DHT22;11261;52.456;10.850;2022-08-14T06:53:23;22.00;99.90
22192;DHT22;11261;52.456;10.850;2022-08-14T06:55:54;21.80;99.90
22192;DHT22;11261;52.456;10.850;2022-08-14T06:58:28;22.60;99.90
22192;DHT22;11261;52.456;10.850;2022-08-14T07:00:58;23.40;99.90
22192;DHT22;11261;52.456;10.850;2022-08-14T07:03:54;23.00;99.90
22192;DHT22;11261;52.456;10.850;2022-08-14T07:06:51;22.40;99.90
22192;DHT22;11261;52.456;10.850;2022-08-14T07:09:25;23.40;99.90
22192;DHT22;11261;52.456;10.850;2022-08-14T07:12:09;24.40;99.90
22192;DHT22;11261;52.456;10.850;2022-08-14T07:14:59;22.80;99.90
22192;DHT22;11261;52.456;10.850;2022-08-14T07:17:27;24.00;99.90
22192;DHT22;11261;52.456;10.850;2022-08-14T07:20:00;24.20;99.90
22192;DHT22;11261;52.456;10.850;2022-08-14T07:22:29;24.20;99.90
22192;DHT22;11261;52.456;10.850;2022-08-14T07:25:15;23.70;99.90
22192;DHT22;11261;52.456;10.850;2022-08-14T07:27:45;23.70;99.90
22192;DHT22;11261;52.456;10.850;2022-08-14T07:30:14;23.40;99.90
22192;DHT22;11261;52.456;10.850;2022-08-14T07:33:01;22.80;99.90
22192;DHT22;11261;52.456;10.850;2022-08-14T07:35:29;22.90;99.90
22192;DHT22;11261;52.456;10.850;2022-08-14T07:38:16;23.00;99.90
22192;DHT22;11261;52.456;10.850;2022-08-14T07:40:46;23.20;99.90
22192;DHT22;11261;52.456;10.850;2022-08-14T07:43:19;24.10;99.90
22192;DHT22;11261;52.456;10.850;2022-08-14T07:45:49;23.60;99.90
22192;DHT22;11261;52.456;10.850;2022-08-14T07:48:20;23.00;99.90
22192;DHT22;11261;52.456;10.850;2022-08-14T07:50:51;22.90;99.90
22192;DHT22;11261;52.456;10.850;2022-08-14T07:53:30;22.50;99.90
22192;DHT22;11261;52.456;10.850;2022-08-14T07:56:06;23.10;99.90
22192;DHT22;11261;52.456;10.850;2022-08-14T07:58:56;23.30;99.90
22192;DHT22;11261;52.456;10.850;2022-08-14T08:01:26;23.30;99.90
22192;DHT22;11261;52.456;10.850;2022-08-14T08:03:57;23.50;99.90
22192;DHT22;11261;52.456;10.850;2022-08-14T08:06:29;24.00;99.90
22192;DHT22;11261;52.456;10.850;2022-08-14T08:08:59;23.50;99.90
22192;DHT22;11261;52.456;10.850;2022-08-14T08:11:31;23.60;99.90
22192;DHT22;11261;52.456;10.850;2022-08-14T08:14:04;23.50;99.90
22192;DHT22;11261;52.456;10.850;2022-08-14T08:16:44;24.10;99.90
22192;DHT22;11261;52.456;10.850;2022-08-14T08:19:17;24.60;99.90
22192;DHT22;11261;52.456;10.850;2022-08-14T08:21:47;25.10;99.90
22192;DHT22;11261;52.456;10.850;2022-08-14T08:24:16;25.60;99.90
22192;DHT22;11261;52.456;10.850;2022-08-14T08:26:47;25.50;99.90
22192;DHT22;11261;52.456;10.850;2022-08-14T08:29:18;24.90;99.90
22192;DHT22;11261;52.456;10.850;2022-08-14T08:31:55;24.50;99.90
22192;DHT22;11261;52.456;10.850;2022-08-14T08:34:40;24.50;99.90
22192;DHT22;11261;52.456;10.850;2022-08-14T08:37:12;24.40;99.90
22192;DHT22;11261;52.456;10.850;2022-08-14T08:39:46;25.20;99.90
22192;DHT22;11261;52.456;10.850;2022-08-14T08:42:29;25.00;99.90
22192;DHT22;11261;52.456;10.850;2022-08-14T08:45:13;25.70;99.90
22192;DHT22;11261;52.456;10.850;2022-08-14T08:47:43;25.90;99.90
22192;DHT22;11261;52.456;10.850;2022-08-14T08:50:20;25.70;99.90
22192;DHT22;11261;52.456;10.850;2022-08-14T08:52:58;26.00;99.90
22192;DHT22;11261;52.456;10.850;2022-08-14T08:55:31;26.00;99.90
22192;DHT22;11261;52.456;10.850;2022-08-14T08:58:03;25.90;99.90
22192;DHT22;11261;52.456;10.850;2022-08-14T09:00:46;25.30;99.90
22192;DHT22;11261;52.456;10.850;2022-08-14T09:03:18;25.50;99.90
22192;DHT22;11261;52.456;10.850;2022-08-14T09:05:51;26.30;99.90
22192;DHT22;11261;52.456;10.850;2022-08-14T09:08:24;26.70;99.90
22192;DHT22;11261;52.456;10.850;2022-08-14T09:11:02;26.00;99.90
22192;DHT22;11261;52.456;10.850;2022-08-14T09:13:48;26.10;99.90
22192;DHT22;11261;52.456;10.850;2022-08-14T09:16:19;26.70;99.90
22192;DHT22;11261;52.456;10.850;2022-08-14T09:18:50;26.60;99.90
22192;DHT22;11261;52.456;10.850;2022-08-14T09:21:21;26.60;99.90
22192;DHT22;11261;52.456;10.850;2022-08-14T09:23:51;26.30;99.90
22192;DHT22;11261;52.456;10.850;2022-08-14T09:26:43;26.90;99.90
22192;DHT22;11261;52.456;10.850;2022-08-14T09:29:16;28.50;99.90
22192;DHT22;11261;52.456;10.850;2022-08-14T09:31:51;29.70;99.90
22192;DHT22;11261;52.456;10.850;2022-08-14T09:34:36;27.50;99.90
22192;DHT22;11261;52.456;10.850;2022-08-14T09:37:38;26.80;99.90
22192;DHT22;11261;52.456;10.850;2022-08-14T09:40:17;27.30;99.90
22192;DHT22;11261;52.456;10.850;2022-08-14T09:42:58;27.00;99.90
22192;DHT22;11261;52.456;10.850;2022-08-14T09:45:32;27.50;99.90
22192;DHT22;11261;52.456;10.850;2022-08-14T09:48:14;27.30;99.90
22192;DHT22;11261;52.456;10.850;2022-08-14T09:50:45;28.30;99.90
22192;DHT22;11261;52.456;10.850;2022-08-14T09:53:29;28.60;99.90
22192;DHT22;11261;52.456;10.850;2022-08-14T09:56:20;28.60;99.90
22192;DHT22;11261;52.456;10.850;2022-08-14T09:59:09;28.10;99.90
22192;DHT22;11261;52.456;10.850;2022-08-14T10:01:42;29.10;99.90
22192;DHT22;11261;52.456;10.850;2022-08-14T10:04:20;29.70;99.90
22192;DHT22;11261;52.456;10.850;2022-08-14T10:07:00;28.40;99.90
22192;DHT22;11261;52.456;10.850;2022-08-14T10:09:29;29.10;99.90
22192;DHT22;11261;52.456;10.850;2022-08-14T10:12:01;28.80;99.90
22192;DHT22;11261;52.456;10.850;2022-08-14T10:14:33;27.40;99.90
22192;DHT22;11261;52.456;10.850;2022-08-14T10:17:04;28.30;99.90
22192;DHT22;11261;52.456;10.850;2022-08-14T10:19:34;28.20;99.90
22192;DHT22;11261;52.456;10.850;2022-08-14T10:22:14;27.50;99.90
22192;DHT22;11261;52.456;10.850;2022-08-14T10:25:09;27.60;99.90
22192;DHT22;11261;52.456;10.850;2022-08-14T10:27:41;27.50;99.90
22192;DHT22;11261;52.456;10.850;2022-08-14T10:30:18;27.50;99.90
22192;DHT22;11261;52.456;10.850;2022-08-14T10:32:51;27.60;99.90
22192;DHT22;11261;52.456;10.850;2022-08-14T10:35:22;27.60;99.90
22192;DHT22;11261;52.456;10.850;2022-08-14T10:37:59;27.30;99.90
22192;DHT22;11261;52.456;10.850;2022-08-14T10:40:33;27.30;99.90
22192;DHT22;11261;52.456;10.850;2022-08-14T10:43:18;27.60;99.90
22192;DHT22;11261;52.456;10.850;2022-08-14T10:45:58;28.80;99.90
22192;DHT22;11261;52.456;10.850;2022-08-14T10:48:55;28.50;99.90
22192;DHT22;11261;52.456;10.850;2022-08-14T10:51:24;27.50;99.90
22192;DHT22;11261;52.456;10.850;2022-08-14T10:53:58;28.20;99.90
22192;DHT22;11261;52.456;10.850;2022-08-14T10:56:53;30.00;99.90
22192;DHT22;11261;52.456;10.850;2022-08-14T10:59:23;30.30;99.90
22192;DHT22;11261;52.456;10.850;2022-08-14T11:02:20;29.60;99.90
22192;DHT22;11261;52.456;10.850;2022-08-14T11:05:10;29.50;99.90
22192;DHT22;11261;52.456;10.850;2022-08-14T11:07:53;29.60;99.90
22192;DHT22;11261;52.456;10.850;2022-08-14T11:10:24;31.10;99.90
22192;DHT22;11261;52.456;10.850;2022-08-14T11:12:55;30.90;99.90
22192;DHT22;11261;52.456;10.850;2022-08-14T11:15:25;32.50;99.90
22192;DHT22;11261;52.456;10.850;2022-08-14T11:17:59;31.50;99.90
22192;DHT22;11261;52.456;10.850;2022-08-14T11:20:29;31.80;99.90
22192;DHT22;11261;52.456;10.850;2022-08-14T11:23:00;31.10;99.90
22192;DHT22;11261;52.456;10.850;2022-08-14T11:25:29;30.30;99.90
22192;DHT22;11261;52.456;10.850;2022-08-14T11:28:11;29.60;99.90
22192;DHT22;11261;52.456;10.850;2022-08-14T11:30:47;29.10;99.90
22192;DHT22;11261;52.456;10.850;2022-08-14T11:33:26;30.30;99.90
22192;DHT22;11261;52.456;10.850;2022-08-14T11:35:59;30.70;99.90
22192;DHT22;11261;52.456;10.850;2022-08-14T11:38:44;30.60;99.90
22192;DHT22;11261;52.456;10.850;2022-08-14T11:41:14;31.60;99.90
22192;DHT22;11261;52.456;10.850;2022-08-14T11:43:46;31.00;99.90
22192;DHT22;11261;52.456;10.850;2022-08-14T11:46:24;30.80;99.90
22192;DHT22;11261;52.456;10.850;2022-08-14T11:49:05;29.90;99.90
22192;DHT22;11261;52.456;10.850;2022-08-14T11:51:36;31.60;99.90
22192;DHT22;11261;52.456;10.850;2022-08-14T11:54:20;32.90;99.90
22192;DHT22;11261;52.456;10.850;2022-08-14T11:57:01;31.30;99.90
22192;DHT22;11261;52.456;10.850;2022-08-14T11:59:30;30.30;99.90
22192;DHT22;11261;52.456;10.850;2022-08-14T12:02:08;29.90;99.90
22192;DHT22;11261;52.456;10.850;2022-08-14T12:04:58;31.00;99.90
22192;DHT22;11261;52.456;10.850;2022-08-14T12:07:30;32.70;99.90
22192;DHT22;11261;52.456;10.850;2022-08-14T12:09:58;33.00;99.30
22192;DHT22;11261;52.456;10.850;2022-08-14T12:12:46;32.00;99.90
22192;DHT22;11261;52.456;10.850;2022-08-14T12:15:28;33.10;99.90
22192;DHT22;11261;52.456;10.850;2022-08-14T12:17:56;31.60;99.90
22192;DHT22;11261;52.456;10.850;2022-08-14T12:20:33;31.80;99.90
22192;DHT22;11261;52.456;10.850;2022-08-14T12:23:03;33.20;99.70
22192;DHT22;11261;52.456;10.850;2022-08-14T12:25:33;32.60;98.60
22192;DHT22;11261;52.456;10.850;2022-08-14T12:28:10;32.70;98.70
22192;DHT22;11261;52.456;10.850;2022-08-14T12:30:59;31.60;98.60
22192;DHT22;11261;52.456;10.850;2022-08-14T12:33:38;31.50;99.90
22192;DHT22;11261;52.456;10.850;2022-08-14T12:36:21;32.20;98.30
22192;DHT22;11261;52.456;10.850;2022-08-14T12:38:51;31.50;99.70
22192;DHT22;11261;52.456;10.850;2022-08-14T12:41:23;31.90;99.60
22192;DHT22;11261;52.456;10.850;2022-08-14T12:44:02;30.80;99.90
22192;DHT22;11261;52.456;10.850;2022-08-14T12:46:33;31.90;99.90
22192;DHT22;11261;52.456;10.850;2022-08-14T12:49:08;31.40;99.30
22192;DHT22;11261;52.456;10.850;2022-08-14T12:51:43;31.80;98.70
22192;DHT22;11261;52.456;10.850;2022-08-14T12:54:22;31.60;98.70
22192;DHT22;11261;52.456;10.850;2022-08-14T12:57:02;30.50;99.90
22192;DHT22;11261;52.456;10.850;2022-08-14T12:59:31;30.40;99.90
22192;DHT22;11261;52.456;10.850;2022-08-14T13:02:20;30.60;99.60
22192;DHT22;11261;52.456;10.850;2022-08-14T13:04:52;30.90;98.90
22192;DHT22;11261;52.456;10.850;2022-08-14T13:07:25;30.90;98.90
22192;DHT22;11261;52.456;10.850;2022-08-14T13:09:59;33.00;96.80
22192;DHT22;11261;52.456;10.850;2022-08-14T13:12:48;31.80;96.70
22192;DHT22;11261;52.456;10.850;2022-08-14T13:15:38;32.20;95.70
22192;DHT22;11261;52.456;10.850;2022-08-14T13:18:08;33.60;94.50
22192;DHT22;11261;52.456;10.850;2022-08-14T13:20:40;31.80;94.80
22192;DHT22;11261;52.456;10.850;2022-08-14T13:23:25;31.50;95.50
22192;DHT22;11261;52.456;10.850;2022-08-14T13:25:58;30.90;96.30
22192;DHT22;11261;52.456;10.850;2022-08-14T13:28:26;31.30;95.80
22192;DHT22;11261;52.456;10.850;2022-08-14T13:31:00;31.00;96.50
22192;DHT22;11261;52.456;10.850;2022-08-14T13:33:38;30.90;96.50
22192;DHT22;11261;52.456;10.850;2022-08-14T13:36:08;31.70;95.90
22192;DHT22;11261;52.456;10.850;2022-08-14T13:38:59;31.50;96.90
22192;DHT22;11261;52.456;10.850;2022-08-14T13:41:27;32.60;95.00
22192;DHT22;11261;52.456;10.850;2022-08-14T13:44:02;31.90;94.70
22192;DHT22;11261;52.456;10.850;2022-08-14T13:46:39;30.80;96.70
22192;DHT22;11261;52.456;10.850;2022-08-14T13:49:12;31.90;95.10
22192;DHT22;11261;52.456;10.850;2022-08-14T13:51:42;31.90;95.70
22192;DHT22;11261;52.456;10.850;2022-08-14T13:54:15;31.60;95.30
22192;DHT22;11261;52.456;10.850;2022-08-14T13:56:44;31.50;95.00
22192;DHT22;11261;52.456;10.850;2022-08-14T13:59:13;31.20;96.10
22192;DHT22;11261;52.456;10.850;2022-08-14T14:02:04;31.60;95.10
22192;DHT22;11261;52.456;10.850;2022-08-14T14:04:38;31.60;95.90
22192;DHT22;11261;52.456;10.850;2022-08-14T14:07:08;32.60;94.40
22192;DHT22;11261;52.456;10.850;2022-08-14T14:09:41;31.50;94.30
22192;DHT22;11261;52.456;10.850;2022-08-14T14:12:18;31.00;95.90
22192;DHT22;11261;52.456;10.850;2022-08-14T14:15:08;31.60;95.10
22192;DHT22;11261;52.456;10.850;2022-08-14T14:17:39;31.20;95.30
22192;DHT22;11261;52.456;10.850;2022-08-14T14:20:12;31.40;94.70
22192;DHT22;11261;52.456;10.850;2022-08-14T14:23:01;31.30;95.40
22192;DHT22;11261;52.456;10.850;2022-08-14T14:25:41;32.20;94.80
22192;DHT22;11261;52.456;10.850;2022-08-14T14:28:27;31.20;94.50
22192;DHT22;11261;52.456;10.850;2022-08-14T14:30:57;30.50;95.70
22192;DHT22;11261;52.456;10.850;2022-08-14T14:33:33;30.50;95.40
22192;DHT22;11261;52.456;10.850;2022-08-14T14:36:19;30.40;95.90
22192;DHT22;11261;52.456;10.850;2022-08-14T14:38:51;30.70;95.70
22192;DHT22;11261;52.456;10.850;2022-08-14T14:41:22;30.70;95.30
22192;DHT22;11261;52.456;10.850;2022-08-14T14:43:52;30.60;95.30
22192;DHT22;11261;52.456;10.850;2022-08-14T14:46:21;30.40;95.20
22192;DHT22;11261;52.456;10.850;2022-08-14T14:49:05;30.20;95.40
22192;DHT22;11261;52.456;10.850;2022-08-14T14:51:37;30.60;94.10
22192;DHT22;11261;52.456;10.850;2022-08-14T14:54:09;31.10;94.10
22192;DHT22;11261;52.456;10.850;2022-08-14T14:56:40;31.10;94.10
22192;DHT22;11261;52.456;10.850;2022-08-14T14:59:19;31.00;93.40
22192;DHT22;11261;52.456;10.850;2022-08-14T15:01:49;31.00;94.00
22192;DHT22;11261;52.456;10.850;2022-08-14T15:04:18;31.10;93.70
22192;DHT22;11261;52.456;10.850;2022-08-14T15:06:47;31.30;94.20
22192;DHT22;11261;52.456;10.850;2022-08-14T15:09:18;31.10;93.60
22192;DHT22;11261;52.456;10.850;2022-08-14T15:11:50;30.80;93.90
22192;DHT22;11261;52.456;10.850;2022-08-14T15:14:19;31.10;93.90
22192;DHT22;11261;52.456;10.850;2022-08-14T15:17:07;30.70;93.90
22192;DHT22;11261;52.456;10.850;2022-08-14T15:19:36;30.70;94.40
22192;DHT22;11261;52.456;10.850;2022-08-14T15:22:05;30.50;93.90
22192;DHT22;11261;52.456;10.850;2022-08-14T15:24:36;30.50;94.10
22192;DHT22;11261;52.456;10.850;2022-08-14T15:27:07;30.50;93.60
22192;DHT22;11261;52.456;10.850;2022-08-14T15:29:36;31.00;93.20
22192;DHT22;11261;52.456;10.850;2022-08-14T15:32:09;30.60;93.10
22192;DHT22;11261;52.456;10.850;2022-08-14T15:34:37;30.60;93.30
22192;DHT22;11261;52.456;10.850;2022-08-14T15:37:18;30.30;93.50
22192;DHT22;11261;52.456;10.850;2022-08-14T15:39:49;30.40;94.20
22192;DHT22;11261;52.456;10.850;2022-08-14T15:42:20;30.70;93.00
22192;DHT22;11261;52.456;10.850;2022-08-14T15:44:50;30.30;93.60
22192;DHT22;11261;52.456;10.850;2022-08-14T15:47:23;30.30;93.60
22192;DHT22;11261;52.456;10.850;2022-08-14T15:49:54;30.30;94.10
22192;DHT22;11261;52.456;10.850;2022-08-14T15:52:27;30.50;93.20
22192;DHT22;11261;52.456;10.850;2022-08-14T15:55:01;30.30;93.30
22192;DHT22;11261;52.456;10.850;2022-08-14T15:57:34;30.00;93.80
22192;DHT22;11261;52.456;10.850;2022-08-14T16:00:04;30.30;93.40
22192;DHT22;11261;52.456;10.850;2022-08-14T16:03:10;30.00;93.30
22192;DHT22;11261;52.456;10.850;2022-08-14T16:05:41;29.80;93.50
22192;DHT22;11261;52.456;10.850;2022-08-14T16:08:12;29.80;93.10
22192;DHT22;11261;52.456;10.850;2022-08-14T16:10:56;29.80;92.60